Time;durP1;ratioP1;P1;durP2;ratioP2;P2;SDS_P1;SDS_P2;PMS_P1;PMS_P2;Temp;Humidity;BMP_temperature;BMP_pressure;BME280_temperature;BME280_humidity;BME280_pressure;Samples;Min_cycle;Max_cycle;Signal;HPM_P1;HPM_P2
2023/10/20 00:01:13;;;;;;;2.47;2.27;;;17.70;99.90;;;;;;952492;149;27410;-76
2023/10/20 00:03:40;;;;;;;2.08;1.98;;;17.70;99.90;;;;;;954299;148;27411;-76
2023/10/20 00:06:06;;;;;;;2.50;2.33;;;17.70;99.90;;;;;;952382;149;27305;-76
2023/10/20 00:08:33;;;;;;;2.40;2.20;;;17.70;99.90;;;;;;950400;146;27371;-76
2023/10/20 00:11:03;;;;;;;3.05;2.70;;;17.70;99.90;;;;;;952615;149;27364;-76
2023/10/20 00:13:29;;;;;;;2.47;2.27;;;17.70;99.90;;;;;;952636;146;27383;-76
2023/10/20 00:15:55;;;;;;;2.98;2.70;;;17.70;99.90;;;;;;951091;146;27449;-76
2023/10/20 00:18:22;;;;;;;3.25;3.02;;;17.70;99.90;;;;;;951291;149;27381;-76
2023/10/20 00:23:14;;;;;;;3.05;2.85;;;17.60;99.90;;;;;;974532;143;40174;-76
2023/10/20 00:25:40;;;;;;;3.30;3.00;;;17.60;99.90;;;;;;968961;146;27340;-77
2023/10/20 00:28:06;;;;;;;3.17;2.83;;;17.60;99.90;;;;;;968691;145;28125;-77
2023/10/20 00:30:33;;;;;;;2.90;2.70;;;17.60;99.90;;;;;;968217;146;27290;-77
2023/10/20 00:32:59;;;;;;;3.10;2.72;;;17.60;99.90;;;;;;969680;146;27325;-77
2023/10/20 00:35:26;;;;;;;3.15;2.85;;;17.60;99.90;;;;;;967241;145;27275;-77
2023/10/20 00:37:52;;;;;;;3.15;2.85;;;17.60;99.90;;;;;;966342;145;27417;-76
2023/10/20 00:40:22;;;;;;;3.75;3.20;;;17.60;99.90;;;;;;969893;146;27278;-75
2023/10/20 00:42:46;;;;;;;3.05;2.83;;;17.50;99.90;;;;;;968698;145;27287;-75
2023/10/20 00:45:12;;;;;;;3.08;2.85;;;17.50;99.90;;;;;;966874;145;27880;-75
2023/10/20 00:47:39;;;;;;;5.33;3.15;;;17.50;99.90;;;;;;968192;145;27258;-75
2023/10/20 00:50:05;;;;;;;3.27;2.80;;;17.50;99.90;;;;;;970824;145;27352;-77
2023/10/20 00:52:32;;;;;;;16.70;3.50;;;17.50;99.90;;;;;;969807;146;27318;-75
2023/10/20 00:54:59;;;;;;;3.35;3.05;;;17.50;99.90;;;;;;968259;146;27290;-76
2023/10/20 00:57:26;;;;;;;3.67;3.37;;;17.50;99.90;;;;;;967436;145;27304;-77
2023/10/20 00:59:52;;;;;;;3.42;2.70;;;17.50;99.90;;;;;;968357;146;27268;-75
2023/10/20 01:02:18;;;;;;;3.45;3.20;;;17.50;99.90;;;;;;969749;145;27342;-75
2023/10/20 01:04:45;;;;;;;3.05;2.55;;;17.50;99.90;;;;;;968656;145;27283;-75
2023/10/20 01:07:14;;;;;;;3.05;2.72;;;17.50;99.90;;;;;;967466;146;27250;-78
2023/10/20 01:09:38;;;;;;;2.70;2.50;;;17.50;99.90;;;;;;966796;145;27310;-77
2023/10/20 01:12:05;;;;;;;2.87;2.67;;;17.40;99.90;;;;;;967991;145;27291;-75
2023/10/20 01:14:31;;;;;;;3.00;2.80;;;17.40;99.90;;;;;;968616;146;27297;-76
2023/10/20 01:16:58;;;;;;;2.85;2.65;;;17.40;99.90;;;;;;963633;146;27351;-77
2023/10/20 01:19:24;;;;;;;3.33;3.02;;;17.40;99.90;;;;;;961104;146;27226;-75
2023/10/20 01:21:51;;;;;;;3.12;2.90;;;17.40;99.90;;;;;;960497;146;27406;-77
2023/10/20 01:24:18;;;;;;;3.25;3.02;;;17.40;99.90;;;;;;955043;148;27389;-75
2023/10/20 01:26:44;;;;;;;3.67;3.45;;;17.30;99.90;;;;;;953888;147;27445;-75
2023/10/20 01:29:12;;;;;;;3.27;3.08;;;17.30;99.90;;;;;;954899;149;27241;-75
2023/10/20 01:31:37;;;;;;;5.28;3.50;;;17.30;99.90;;;;;;954413;147;28060;-76
2023/10/20 01:34:05;;;;;;;3.77;3.47;;;17.30;99.90;;;;;;955193;148;27309;-75
2023/10/20 01:36:31;;;;;;;3.33;3.10;;;17.30;99.90;;;;;;954512;149;27362;-75
2023/10/20 01:38:57;;;;;;;3.30;3.10;;;17.30;99.90;;;;;;954425;147;27331;-76
2023/10/20 01:41:24;;;;;;;3.92;3.52;;;17.30;99.90;;;;;;955063;148;27342;-75
2023/10/20 01:43:50;;;;;;;3.87;3.58;;;17.30;99.90;;;;;;954927;148;27236;-75
2023/10/20 01:46:17;;;;;;;3.58;3.37;;;17.30;99.90;;;;;;954860;147;27249;-76
2023/10/20 01:48:44;;;;;;;4.22;3.85;;;17.30;99.90;;;;;;953559;147;27421;-77
2023/10/20 01:51:11;;;;;;;3.92;3.62;;;17.30;99.90;;;;;;954038;148;27314;-76
2023/10/20 01:53:37;;;;;;;4.40;3.92;;;17.30;99.90;;;;;;954778;147;28556;-77
2023/10/20 01:56:03;;;;;;;4.83;4.25;;;17.30;99.90;;;;;;954387;148;27312;-77
2023/10/20 01:58:30;;;;;;;4.20;3.90;;;17.30;99.90;;;;;;953540;149;27314;-76
2023/10/20 02:00:57;;;;;;;4.60;4.22;;;17.30;99.90;;;;;;954343;147;27417;-76
2023/10/20 02:03:23;;;;;;;5.05;4.42;;;17.30;99.90;;;;;;954031;147;27305;-76
2023/10/20 02:05:50;;;;;;;4.72;4.33;;;17.20;99.90;;;;;;954943;148;27264;-77
2023/10/20 02:08:16;;;;;;;5.35;4.95;;;17.20;99.90;;;;;;955016;148;27289;-77
2023/10/20 02:10:46;;;;;;;5.12;4.75;;;17.20;99.90;;;;;;954723;148;27323;-77
2023/10/20 02:13:13;;;;;;;5.12;4.72;;;17.20;99.90;;;;;;954558;148;27233;-76
2023/10/20 02:15:39;;;;;;;5.25;4.85;;;17.20;99.90;;;;;;954359;148;27304;-77
2023/10/20 02:18:06;;;;;;;5.30;4.90;;;17.20;99.90;;;;;;954847;149;27266;-76
2023/10/20 02:20:32;;;;;;;5.65;5.12;;;17.20;99.90;;;;;;954116;149;27279;-76
2023/10/20 02:22:59;;;;;;;5.17;4.78;;;17.20;99.90;;;;;;956386;148;27315;-76
2023/10/20 02:25:26;;;;;;;5.15;4.75;;;17.10;99.90;;;;;;960362;148;27432;-76
2023/10/20 02:27:52;;;;;;;5.40;5.00;;;17.10;99.90;;;;;;959985;147;27324;-76
2023/10/20 02:30:19;;;;;;;5.47;5.05;;;17.10;99.90;;;;;;954527;148;27312;-76
2023/10/20 02:32:45;;;;;;;5.58;5.08;;;17.10;99.90;;;;;;953863;147;27722;-76
2023/10/20 02:35:12;;;;;;;5.80;5.30;;;17.10;99.90;;;;;;954602;146;27280;-76
2023/10/20 02:37:38;;;;;;;5.58;5.08;;;17.10;99.90;;;;;;953627;147;27357;-77
2023/10/20 02:40:05;;;;;;;5.22;4.83;;;17.10;99.90;;;;;;953601;148;27436;-76
2023/10/20 02:42:32;;;;;;;5.15;4.75;;;17.10;99.90;;;;;;954599;147;27344;-76
2023/10/20 02:44:58;;;;;;;5.75;5.35;;;17.10;99.90;;;;;;954986;148;27680;-76
2023/10/20 02:47:25;;;;;;;6.08;5.58;;;17.10;99.90;;;;;;954212;147;27456;-79
2023/10/20 02:49:57;;;;;;;5.35;4.95;;;17.10;99.90;;;;;;954159;148;27337;-79
2023/10/20 02:52:21;;;;;;;5.40;4.90;;;17.10;99.90;;;;;;954321;147;27398;-79
2023/10/20 02:54:48;;;;;;;5.83;5.33;;;17.10;99.90;;;;;;954996;147;27354;-79
2023/10/20 02:57:14;;;;;;;5.75;5.30;;;17.10;99.90;;;;;;954256;146;27288;-78
2023/10/20 02:59:41;;;;;;;5.05;4.67;;;17.10;99.90;;;;;;956712;148;27312;-79
2023/10/20 03:02:08;;;;;;;5.50;5.00;;;17.00;99.90;;;;;;958356;147;27349;-79
2023/10/20 03:04:34;;;;;;;6.50;6.00;;;17.00;99.90;;;;;;959392;147;27366;-79
2023/10/20 03:07:00;;;;;;;5.62;5.15;;;17.00;99.90;;;;;;958211;147;27806;-78
2023/10/20 03:09:27;;;;;;;5.87;5.42;;;17.00;99.90;;;;;;957234;148;27264;-76
2023/10/20 03:11:54;;;;;;;6.47;5.90;;;17.00;99.90;;;;;;959551;147;27405;-79
2023/10/20 03:14:21;;;;;;;6.17;5.67;;;17.00;99.90;;;;;;959471;147;27364;-79
2023/10/20 03:16:47;;;;;;;6.15;5.65;;;17.00;99.90;;;;;;959262;147;27372;-79
2023/10/20 03:19:14;;;;;;;6.10;5.60;;;17.00;99.90;;;;;;958700;148;27324;-79
2023/10/20 03:21:40;;;;;;;6.22;5.67;;;17.00;99.90;;;;;;958325;147;27347;-79
2023/10/20 03:24:07;;;;;;;6.00;5.40;;;17.00;99.90;;;;;;956391;148;27379;-79
2023/10/20 03:26:33;;;;;;;6.97;6.42;;;17.00;99.90;;;;;;953425;148;28116;-76
2023/10/20 03:29:00;;;;;;;5.80;5.40;;;17.00;99.90;;;;;;954320;148;27440;-79
2023/10/20 03:31:26;;;;;;;6.95;6.45;;;17.00;99.90;;;;;;952587;149;27386;-79
2023/10/20 03:33:53;;;;;;;14.20;7.22;;;17.00;99.90;;;;;;954720;149;27340;-79
2023/10/20 03:36:21;;;;;;;7.08;6.37;;;17.00;99.90;;;;;;954208;148;27243;-79
2023/10/20 03:38:46;;;;;;;6.80;6.22;;;17.00;99.90;;;;;;954455;147;27585;-78
2023/10/20 03:41:14;;;;;;;7.05;6.45;;;16.90;99.90;;;;;;951479;147;27288;-79
2023/10/20 03:43:39;;;;;;;7.03;6.35;;;16.90;99.90;;;;;;950744;147;27411;-79
2023/10/20 03:46:06;;;;;;;6.67;6.08;;;16.90;99.90;;;;;;929223;150;27420;-79
2023/10/20 03:48:35;;;;;;;7.08;6.47;;;16.90;99.90;;;;;;951897;148;27338;-79
2023/10/20 03:50:59;;;;;;;6.58;6.03;;;16.90;99.90;;;;;;952641;147;27363;-76
2023/10/20 03:53:35;;;;;;;7.45;6.75;;;16.90;99.90;;;;;;952832;148;27357;-79
2023/10/20 03:55:58;;;;;;;7.47;6.75;;;16.90;99.90;;;;;;951483;148;27316;-79
2023/10/20 03:58:24;;;;;;;6.50;6.00;;;16.90;99.90;;;;;;951740;148;27345;-76
2023/10/20 04:00:53;;;;;;;7.00;6.40;;;16.80;99.90;;;;;;952698;148;28187;-76
2023/10/20 04:03:20;;;;;;;7.03;6.40;;;16.80;99.90;;;;;;951923;148;27357;-76
2023/10/20 04:05:47;;;;;;;7.10;6.45;;;16.80;99.90;;;;;;953179;148;27369;-77
2023/10/20 04:08:13;;;;;;;7.80;7.10;;;16.80;99.90;;;;;;951728;148;27772;-76
2023/10/20 04:10:40;;;;;;;6.87;6.35;;;16.80;99.90;;;;;;952835;148;27286;-77
2023/10/20 04:13:07;;;;;;;7.85;7.15;;;16.80;99.90;;;;;;951726;148;27376;-77
2023/10/20 04:15:36;;;;;;;7.42;6.75;;;16.80;99.90;;;;;;952123;148;27416;-77
2023/10/20 04:18:00;;;;;;;8.08;6.47;;;16.80;99.90;;;;;;950662;148;27387;-76
2023/10/20 04:20:26;;;;;;;6.42;5.92;;;16.80;99.90;;;;;;933888;150;27703;-76
2023/10/20 04:22:53;;;;;;;7.83;6.60;;;16.80;99.90;;;;;;935411;150;27467;-77
2023/10/20 04:25:19;;;;;;;7.15;6.53;;;16.80;99.90;;;;;;933085;150;27364;-76
2023/10/20 04:27:57;;;;;;;7.12;6.53;;;16.80;99.90;;;;;;941608;149;27421;-76
2023/10/20 04:55:14;;;;;;;6.85;6.15;;;16.50;99.90;;;;;;961504;147;27454;-76
2023/10/20 05:05:06;;;;;;;6.55;6.05;;;16.40;99.90;;;;;;919665;150;27430;-76
2023/10/20 05:07:28;;;;;;;6.30;5.80;;;16.40;99.90;;;;;;956297;149;27318;-76
2023/10/20 05:09:55;;;;;;;6.65;6.00;;;16.40;99.90;;;;;;954004;147;27396;-76
2023/10/20 05:12:21;;;;;;;6.40;5.87;;;16.40;99.90;;;;;;942998;149;27336;-77
2023/10/20 05:14:49;;;;;;;7.33;6.62;;;16.30;99.90;;;;;;942874;149;27357;-74
2023/10/20 05:17:15;;;;;;;7.55;6.75;;;16.30;99.90;;;;;;942519;149;27352;-77
2023/10/20 05:19:41;;;;;;;8.13;6.37;;;16.30;99.90;;;;;;942921;149;27369;-77
2023/10/20 05:22:09;;;;;;;7.78;7.08;;;16.30;99.90;;;;;;935193;150;27469;-77
2023/10/20 05:24:34;;;;;;;7.35;6.65;;;16.30;99.90;;;;;;964441;145;27270;-77
2023/10/20 05:27:01;;;;;;;6.67;6.17;;;16.30;99.90;;;;;;966560;145;27351;-77
2023/10/20 05:29:28;;;;;;;7.15;6.55;;;16.30;99.90;;;;;;964956;146;27303;-77
2023/10/20 05:31:54;;;;;;;7.20;6.50;;;16.30;99.90;;;;;;964713;146;27407;-77
2023/10/20 05:34:21;;;;;;;7.95;7.33;;;16.30;99.90;;;;;;951369;149;27372;-77
2023/10/20 05:36:47;;;;;;;7.90;7.17;;;16.30;99.90;;;;;;950025;149;27377;-77
2023/10/20 05:39:14;;;;;;;7.45;6.80;;;16.30;99.90;;;;;;967611;145;27409;-77
2023/10/20 05:41:41;;;;;;;7.87;7.25;;;16.30;99.90;;;;;;965593;145;27313;-76
2023/10/20 05:44:11;;;;;;;11.60;7.95;;;16.30;99.90;;;;;;967892;145;27440;-77
2023/10/20 05:46:37;;;;;;;8.53;7.78;;;16.30;99.90;;;;;;966188;145;27796;-76
2023/10/20 05:49:00;;;;;;;8.28;7.47;;;16.30;99.90;;;;;;967218;145;27352;-77
2023/10/20 05:51:27;;;;;;;8.60;7.72;;;16.20;99.90;;;;;;963870;147;27891;-76
2023/10/20 05:53:53;;;;;;;8.78;7.87;;;16.20;99.90;;;;;;957175;147;27367;-77
2023/10/20 05:56:20;;;;;;;8.53;7.83;;;16.20;99.90;;;;;;968179;145;27295;-76
2023/10/20 05:58:47;;;;;;;9.15;8.35;;;16.10;99.90;;;;;;964082;146;27380;-77
2023/10/20 06:01:13;;;;;;;8.93;8.10;;;16.10;99.90;;;;;;947504;148;27375;-76
2023/10/20 06:03:40;;;;;;;9.35;8.55;;;16.10;99.90;;;;;;947921;148;27454;-76
2023/10/20 06:06:06;;;;;;;9.65;8.65;;;16.00;99.90;;;;;;968075;145;27260;-76
2023/10/20 06:08:33;;;;;;;9.20;8.40;;;16.00;99.90;;;;;;945256;149;27454;-76
2023/10/20 06:11:03;;;;;;;9.55;8.65;;;16.00;99.90;;;;;;964310;146;27342;-76
2023/10/20 06:13:30;;;;;;;9.00;8.30;;;15.90;99.90;;;;;;947837;149;27682;-76
2023/10/20 06:15:56;;;;;;;8.83;8.03;;;15.90;99.90;;;;;;964671;147;27258;-76
2023/10/20 06:18:22;;;;;;;10.15;9.20;;;15.90;99.90;;;;;;948241;148;27323;-75
2023/10/20 06:20:49;;;;;;;9.68;8.85;;;15.80;99.90;;;;;;946677;148;27349;-76
2023/10/20 06:23:16;;;;;;;9.75;8.95;;;15.80;99.90;;;;;;966090;146;27309;-76
2023/10/20 06:25:42;;;;;;;9.93;8.98;;;15.80;99.90;;;;;;957905;146;27361;-75
2023/10/20 06:28:09;;;;;;;10.80;8.85;;;15.70;99.90;;;;;;930538;150;27394;-74
2023/10/20 06:30:42;;;;;;;9.83;8.93;;;15.70;99.90;;;;;;940033;149;27246;-74
2023/10/20 06:35:49;;;;;;;9.65;8.68;;;15.70;99.90;;;;;;950198;147;27351;-77
2023/10/20 06:40:36;;;;;;;9.60;8.70;;;15.60;99.90;;;;;;934445;150;27332;-74
2023/10/20 06:43:04;;;;;;;9.13;8.23;;;15.60;99.90;;;;;;954676;147;27309;-74
2023/10/20 06:45:31;;;;;;;9.30;8.40;;;15.50;99.90;;;;;;933126;150;27502;-74
2023/10/20 06:47:57;;;;;;;9.18;8.38;;;15.50;99.90;;;;;;951357;147;27287;-75
2023/10/20 06:50:22;;;;;;;10.50;9.10;;;15.50;99.90;;;;;;950789;147;27364;-74
2023/10/20 06:52:49;;;;;;;8.80;8.08;;;15.50;99.90;;;;;;936014;149;27430;-75
2023/10/20 06:55:16;;;;;;;10.18;9.28;;;15.50;99.90;;;;;;934088;149;27261;-75
2023/10/20 06:57:42;;;;;;;9.08;8.30;;;15.50;99.90;;;;;;935827;149;27318;-76
2023/10/20 07:00:16;;;;;;;8.78;7.87;;;15.40;99.90;;;;;;953946;147;27282;-74
2023/10/20 07:02:35;;;;;;;9.50;8.60;;;15.40;99.90;;;;;;951910;148;27470;-74
2023/10/20 07:05:02;;;;;;;8.45;7.65;;;15.40;99.90;;;;;;954704;147;27339;-76
2023/10/20 07:07:29;;;;;;;9.00;8.10;;;15.40;99.90;;;;;;955862;148;27373;-75
2023/10/20 07:09:55;;;;;;;9.53;8.73;;;15.40;99.90;;;;;;952637;147;27346;-74
2023/10/20 07:12:22;;;;;;;10.05;9.05;;;15.40;99.90;;;;;;952021;147;27312;-73
2023/10/20 07:14:48;;;;;;;11.18;8.73;;;15.40;99.90;;;;;;948145;148;27369;-74
2023/10/20 07:17:15;;;;;;;10.30;9.23;;;15.40;99.90;;;;;;942863;148;27375;-73
2023/10/20 07:19:42;;;;;;;8.78;8.00;;;15.40;99.90;;;;;;950394;147;27329;-74
2023/10/20 07:22:08;;;;;;;9.13;8.33;;;15.40;99.90;;;;;;928173;150;27332;-74
2023/10/20 07:24:35;;;;;;;9.60;8.70;;;15.50;99.90;;;;;;954182;147;27442;-74
2023/10/20 07:27:05;;;;;;;9.80;8.13;;;15.50;99.90;;;;;;954421;147;27512;-74
2023/10/20 07:29:30;;;;;;;9.65;8.85;;;15.50;99.90;;;;;;952873;147;27301;-75
2023/10/20 07:31:58;;;;;;;9.10;8.30;;;15.60;99.90;;;;;;954788;147;27262;-77
2023/10/20 07:34:25;;;;;;;7.95;7.25;;;15.60;99.90;;;;;;954003;147;27304;-75
2023/10/20 07:36:51;;;;;;;8.50;7.25;;;15.70;99.90;;;;;;954447;147;27732;-77
2023/10/20 07:39:17;;;;;;;8.75;7.85;;;15.70;99.90;;;;;;934296;151;27377;-74
2023/10/20 07:41:47;;;;;;;9.05;8.28;;;15.70;99.90;;;;;;942448;148;27264;-74
2023/10/20 07:44:13;;;;;;;8.08;7.37;;;15.70;99.90;;;;;;935609;149;27438;-77
2023/10/20 07:46:41;;;;;;;7.83;7.12;;;15.70;99.90;;;;;;937070;149;27359;-76
2023/10/20 07:49:06;;;;;;;8.85;8.08;;;15.70;99.90;;;;;;932982;149;27361;-74
2023/10/20 07:51:33;;;;;;;8.70;7.92;;;15.70;99.90;;;;;;935539;149;27457;-75
2023/10/20 07:53:59;;;;;;;9.15;8.15;;;15.70;99.90;;;;;;935316;149;27407;-74
2023/10/20 07:56:26;;;;;;;9.55;8.65;;;15.70;99.90;;;;;;935296;149;27258;-75
2023/10/20 07:58:52;;;;;;;10.18;9.23;;;15.70;99.90;;;;;;935447;149;27333;-73
2023/10/20 08:01:19;;;;;;;9.88;8.88;;;15.70;99.90;;;;;;950387;147;27392;-74
2023/10/20 08:03:47;;;;;;;9.70;8.68;;;15.70;99.90;;;;;;934740;149;27358;-77
2023/10/20 08:06:12;;;;;;;10.60;9.50;;;15.60;99.90;;;;;;934053;149;27444;-77
2023/10/20 08:08:39;;;;;;;11.15;9.88;;;15.70;99.90;;;;;;927896;150;27904;-74
2023/10/20 08:11:06;;;;;;;9.38;8.48;;;15.70;99.90;;;;;;951484;147;27290;-74
2023/10/20 08:13:33;;;;;;;9.33;8.43;;;15.70;99.90;;;;;;931735;149;27353;-77
2023/10/20 08:15:58;;;;;;;9.38;8.45;;;15.70;99.90;;;;;;951203;146;27378;-74
2023/10/20 08:18:25;;;;;;;10.80;9.70;;;15.70;99.90;;;;;;933537;149;27377;-74
2023/10/20 08:20:52;;;;;;;11.95;10.72;;;15.80;99.90;;;;;;927223;150;27351;-76
2023/10/20 08:23:18;;;;;;;11.03;9.93;;;15.80;99.90;;;;;;944369;149;27346;-74
2023/10/20 08:25:45;;;;;;;8.58;7.78;;;15.80;99.90;;;;;;944297;148;27345;-77
2023/10/20 08:28:11;;;;;;;10.45;9.45;;;15.90;99.90;;;;;;943542;148;27532;-74
2023/10/20 08:30:38;;;;;;;9.90;8.93;;;15.90;99.90;;;;;;930993;149;27303;-74
2023/10/20 08:33:05;;;;;;;8.98;8.10;;;15.90;99.90;;;;;;948506;147;27652;-73
2023/10/20 08:35:31;;;;;;;8.60;7.90;;;16.00;99.90;;;;;;949769;147;27308;-76
2023/10/20 08:37:58;;;;;;;8.70;7.90;;;16.00;99.90;;;;;;933143;150;27385;-77
2023/10/20 08:40:25;;;;;;;8.18;7.47;;;16.10;99.90;;;;;;948779;147;27751;-78
2023/10/20 08:42:51;;;;;;;7.35;6.75;;;16.10;99.90;;;;;;947559;148;27354;-78
2023/10/20 08:45:17;;;;;;;8.00;7.20;;;16.10;99.90;;;;;;933714;149;27462;-76
2023/10/20 08:47:44;;;;;;;8.30;7.60;;;16.20;99.90;;;;;;932504;150;27320;-77
2023/10/20 08:50:11;;;;;;;7.87;7.17;;;16.20;99.90;;;;;;932758;149;27336;-77
2023/10/20 08:52:38;;;;;;;8.20;7.50;;;16.20;99.90;;;;;;949762;147;27362;-77
2023/10/20 08:55:07;;;;;;;7.55;6.83;;;16.30;99.90;;;;;;947171;149;27365;-77
2023/10/20 08:57:30;;;;;;;8.10;7.37;;;16.40;99.90;;;;;;934270;149;27826;-77
2023/10/20 08:59:57;;;;;;;8.65;7.65;;;16.40;99.90;;;;;;949250;147;27349;-77
2023/10/20 09:02:24;;;;;;;8.55;7.75;;;16.50;99.90;;;;;;934347;149;27354;-77
2023/10/20 09:04:51;;;;;;;8.13;7.42;;;16.60;99.90;;;;;;949932;147;27267;-77
2023/10/20 09:07:17;;;;;;;8.48;7.67;;;16.60;99.90;;;;;;951902;147;27351;-77
2023/10/20 09:09:43;;;;;;;7.42;6.72;;;16.60;99.90;;;;;;927160;150;27315;-77
2023/10/20 09:12:11;;;;;;;8.13;7.42;;;16.70;99.90;;;;;;952883;147;27470;-78
2023/10/20 09:14:40;;;;;;;6.97;6.37;;;16.70;99.90;;;;;;951590;147;27317;-77
2023/10/20 09:17:06;;;;;;;7.62;6.92;;;16.70;99.90;;;;;;933917;150;27479;-77
2023/10/20 09:19:33;;;;;;;7.87;7.17;;;16.70;99.90;;;;;;935045;149;27386;-78
2023/10/20 09:21:59;;;;;;;7.20;6.60;;;16.80;99.90;;;;;;950459;147;27294;-77
2023/10/20 09:24:32;;;;;;;6.40;5.80;;;16.70;99.90;;;;;;951314;147;27352;-77
2023/10/20 09:26:59;;;;;;;7.03;6.33;;;16.80;99.90;;;;;;948812;146;27333;-77
2023/10/20 09:29:25;;;;;;;7.37;6.67;;;16.80;99.90;;;;;;938631;149;27452;-77
2023/10/20 09:31:51;;;;;;;6.62;6.12;;;16.80;99.90;;;;;;945467;149;27360;-77
2023/10/20 09:34:18;;;;;;;6.58;5.97;;;16.90;99.90;;;;;;942801;149;27466;-78
2023/10/20 09:36:47;;;;;;;7.50;6.85;;;16.90;99.90;;;;;;938482;149;27293;-77
2023/10/20 09:39:16;;;;;;;5.85;5.35;;;16.90;99.90;;;;;;958686;148;27393;-77
2023/10/20 09:41:42;;;;;;;6.10;5.60;;;16.90;99.90;;;;;;943416;149;27375;-77
2023/10/20 09:44:07;;;;;;;6.60;6.03;;;16.90;99.90;;;;;;956692;147;27342;-77
2023/10/20 09:46:39;;;;;;;5.90;5.33;;;16.90;99.90;;;;;;938657;150;27771;-76
2023/10/20 09:49:14;;;;;;;5.85;5.35;;;16.90;99.90;;;;;;956850;146;27332;-76
2023/10/20 09:51:38;;;;;;;7.33;5.78;;;17.00;99.90;;;;;;945832;151;27351;-76
2023/10/20 09:54:05;;;;;;;6.00;5.50;;;17.00;99.90;;;;;;947440;151;27321;-76
2023/10/20 09:56:31;;;;;;;7.33;6.65;;;17.00;99.90;;;;;;947378;150;27347;-74
2023/10/20 09:59:01;;;;;;;5.60;5.10;;;17.00;99.90;;;;;;947816;151;27728;-75
2023/10/20 10:01:27;;;;;;;6.62;5.87;;;17.00;99.90;;;;;;947731;151;27314;-76
2023/10/20 10:04:08;;;;;;;7.03;6.33;;;17.10;99.90;;;;;;946703;151;27295;-74
2023/10/20 10:06:35;;;;;;;6.25;5.65;;;17.10;99.90;;;;;;947307;149;27405;-77
2023/10/20 10:09:05;;;;;;;5.53;5.08;;;17.20;99.90;;;;;;947559;151;27361;-75
2023/10/20 10:11:29;;;;;;;6.65;6.10;;;17.20;99.90;;;;;;946662;151;27302;-74
2023/10/20 10:13:55;;;;;;;6.45;5.95;;;17.30;99.90;;;;;;947392;151;27297;-74
2023/10/20 10:16:22;;;;;;;6.12;5.62;;;17.40;99.90;;;;;;946776;148;27390;-75
2023/10/20 10:18:48;;;;;;;7.10;6.40;;;17.50;99.90;;;;;;943235;149;27304;-75
2023/10/20 10:21:24;;;;;;;6.90;6.33;;;17.50;99.90;;;;;;944326;149;27369;-75
2023/10/20 10:24:13;;;;;;;6.83;6.22;;;17.60;99.90;;;;;;942897;149;27316;-74
2023/10/20 10:26:57;;;;;;;6.90;6.40;;;17.70;99.90;;;;;;941631;149;27396;-76
2023/10/20 10:29:53;;;;;;;6.75;6.17;;;17.70;99.90;;;;;;947966;147;27354;-74
2023/10/20 10:32:20;;;;;;;6.47;5.97;;;17.70;99.90;;;;;;945270;148;27274;-74
2023/10/20 10:34:51;;;;;;;7.47;6.83;;;17.80;99.90;;;;;;945736;151;27303;-74
2023/10/20 10:37:17;;;;;;;8.25;7.45;;;17.80;99.90;;;;;;945756;148;27348;-74
2023/10/20 10:39:43;;;;;;;8.63;7.72;;;17.90;99.90;;;;;;944159;148;27458;-74
2023/10/20 10:42:11;;;;;;;7.95;7.25;;;18.00;99.90;;;;;;931539;150;27866;-77
2023/10/20 10:44:36;;;;;;;8.18;7.58;;;18.10;99.90;;;;;;940750;149;27339;-75
2023/10/20 10:47:03;;;;;;;7.95;7.20;;;18.20;99.90;;;;;;940953;149;27843;-74
2023/10/20 10:49:30;;;;;;;7.75;7.08;;;18.30;99.90;;;;;;940368;150;27450;-77
2023/10/20 10:51:56;;;;;;;7.62;7.03;;;18.50;99.90;;;;;;939851;150;27366;-74
2023/10/20 10:54:24;;;;;;;7.33;6.72;;;18.60;99.90;;;;;;940311;152;27345;-77
2023/10/20 10:56:49;;;;;;;7.10;6.50;;;18.80;99.90;;;;;;947347;151;27261;-76
2023/10/20 10:59:16;;;;;;;7.20;6.50;;;18.90;99.90;;;;;;947396;148;27281;-76
2023/10/20 11:01:42;;;;;;;6.37;5.78;;;19.10;99.90;;;;;;946488;151;27346;-76
2023/10/20 11:04:09;;;;;;;6.58;6.08;;;19.20;99.90;;;;;;946811;151;27288;-76
2023/10/20 11:06:37;;;;;;;5.78;5.35;;;19.30;99.90;;;;;;946497;148;27826;-74
2023/10/20 11:09:02;;;;;;;6.75;6.15;;;19.30;99.90;;;;;;946064;150;27351;-74
2023/10/20 11:11:29;;;;;;;6.37;5.87;;;19.30;99.90;;;;;;940148;150;27309;-74
2023/10/20 11:13:55;;;;;;;7.28;6.67;;;19.30;99.90;;;;;;940769;152;27309;-75
2023/10/20 11:16:22;;;;;;;7.47;6.55;;;19.30;99.90;;;;;;940618;149;27354;-76
2023/10/20 11:18:48;;;;;;;6.35;5.75;;;19.30;99.90;;;;;;940156;149;27249;-76
2023/10/20 11:21:15;;;;;;;6.70;6.20;;;19.30;99.90;;;;;;947301;151;27377;-74
2023/10/20 11:23:42;;;;;;;7.10;6.35;;;19.30;99.90;;;;;;947299;149;27365;-74
2023/10/20 11:26:17;;;;;;;6.92;6.28;;;19.30;99.90;;;;;;939361;150;27301;-75
2023/10/20 11:28:41;;;;;;;7.00;6.40;;;19.30;99.90;;;;;;954960;147;27365;-74
2023/10/20 11:31:07;;;;;;;7.05;6.35;;;19.40;99.90;;;;;;956766;147;27331;-74
2023/10/20 11:33:34;;;;;;;6.47;5.97;;;19.30;99.90;;;;;;939224;149;27368;-74
2023/10/20 11:36:01;;;;;;;7.92;7.15;;;19.30;99.90;;;;;;955131;147;27332;-74
2023/10/20 11:38:27;;;;;;;7.65;7.08;;;19.30;99.90;;;;;;937479;152;27456;-74
2023/10/20 11:40:54;;;;;;;6.95;6.25;;;19.30;99.90;;;;;;939238;149;27429;-77
2023/10/20 11:43:20;;;;;;;6.72;6.17;;;19.30;99.90;;;;;;956101;147;27376;-75
2023/10/20 11:45:47;;;;;;;7.25;6.65;;;19.30;99.90;;;;;;939478;150;27474;-76
2023/10/20 11:48:14;;;;;;;7.12;6.35;;;19.30;99.90;;;;;;940177;149;27401;-76
2023/10/20 11:50:40;;;;;;;6.95;6.40;;;19.40;99.90;;;;;;938079;150;27253;-77
2023/10/20 11:53:07;;;;;;;6.62;6.03;;;19.40;99.90;;;;;;932381;149;27698;-74
2023/10/20 11:55:34;;;;;;;6.72;6.12;;;19.40;99.90;;;;;;943198;149;27348;-75
2023/10/20 11:58:03;;;;;;;7.05;6.35;;;19.50;99.90;;;;;;933683;150;27342;-75
2023/10/20 12:00:26;;;;;;;6.30;5.80;;;19.50;99.90;;;;;;946278;149;28214;-74
2023/10/20 12:02:54;;;;;;;6.28;5.72;;;19.60;99.90;;;;;;947054;149;27410;-75
2023/10/20 12:05:20;;;;;;;6.35;5.85;;;19.60;99.90;;;;;;946609;149;27298;-76
2023/10/20 12:07:46;;;;;;;5.50;5.10;;;19.70;99.90;;;;;;946808;149;27331;-77
2023/10/20 12:10:13;;;;;;;6.42;5.90;;;19.70;99.90;;;;;;947686;148;27289;-77
2023/10/20 12:12:39;;;;;;;6.58;5.87;;;19.80;99.90;;;;;;947496;149;27274;-77
2023/10/20 12:15:07;;;;;;;6.05;5.60;;;19.80;99.90;;;;;;935490;151;27409;-78
2023/10/20 12:17:33;;;;;;;5.83;5.33;;;19.90;99.90;;;;;;935439;151;27327;-78
2023/10/20 12:19:59;;;;;;;6.25;5.75;;;20.00;99.90;;;;;;939078;150;27384;-78
2023/10/20 12:22:26;;;;;;;5.80;5.30;;;20.10;99.90;;;;;;927263;153;27779;-77
2023/10/20 12:24:52;;;;;;;6.72;6.17;;;20.20;99.90;;;;;;939039;150;27372;-78
2023/10/20 12:27:20;;;;;;;6.35;5.75;;;20.20;99.90;;;;;;938736;150;28357;-78
2023/10/20 12:29:46;;;;;;;6.17;5.58;;;20.30;99.90;;;;;;942380;148;27387;-77
2023/10/20 12:32:12;;;;;;;6.05;5.58;;;20.30;99.90;;;;;;947208;149;27370;-77
2023/10/20 12:34:39;;;;;;;6.33;5.72;;;20.30;99.90;;;;;;967165;145;27234;-77
2023/10/20 12:37:05;;;;;;;5.92;5.42;;;20.30;99.90;;;;;;952446;148;27306;-77
2023/10/20 12:39:32;;;;;;;5.87;5.37;;;20.30;99.90;;;;;;964233;146;27357;-77
2023/10/20 12:42:05;;;;;;;5.90;5.40;;;20.40;99.90;;;;;;963811;146;27257;-77
2023/10/20 12:44:31;;;;;;;6.15;5.55;;;20.40;99.90;;;;;;965618;146;27438;-78
2023/10/20 12:46:58;;;;;;;6.05;5.55;;;20.30;99.90;;;;;;966774;145;27361;-77
2023/10/20 12:49:24;;;;;;;5.85;5.45;;;20.30;99.90;;;;;;949325;148;27286;-78
2023/10/20 12:51:51;;;;;;;5.40;4.90;;;20.20;99.90;;;;;;949640;148;27479;-78
2023/10/20 12:54:17;;;;;;;5.90;5.42;;;20.20;99.90;;;;;;968064;145;27347;-78
2023/10/20 12:56:44;;;;;;;6.17;5.58;;;20.10;99.90;;;;;;968503;145;27405;-78
2023/10/20 12:59:11;;;;;;;5.40;5.08;;;20.00;99.90;;;;;;964498;145;27461;-77
2023/10/20 13:01:37;;;;;;;5.45;4.95;;;20.00;99.90;;;;;;949475;149;27346;-77
2023/10/20 13:04:04;;;;;;;5.35;4.95;;;19.90;99.90;;;;;;967871;145;27329;-78
2023/10/20 13:06:30;;;;;;;5.22;4.72;;;19.90;99.90;;;;;;963148;146;27340;-77
2023/10/20 13:08:57;;;;;;;5.95;5.37;;;19.80;99.90;;;;;;968037;145;27365;-77
2023/10/20 13:11:24;;;;;;;5.67;4.78;;;19.90;99.90;;;;;;965791;146;27643;-77
2023/10/20 13:13:50;;;;;;;4.97;4.62;;;19.90;99.90;;;;;;967257;145;27362;-77
2023/10/20 13:16:17;;;;;;;5.00;4.58;;;20.10;99.90;;;;;;966242;146;27296;-74
2023/10/20 13:18:43;;;;;;;3.85;3.55;;;20.20;99.90;;;;;;964219;146;27449;-76
2023/10/20 13:21:11;;;;;;;3.62;3.08;;;20.40;99.90;;;;;;970931;145;27420;-76
2023/10/20 13:23:37;;;;;;;2.58;2.37;;;20.60;99.90;;;;;;964505;145;27752;-76